sensor_id;sensor_type;location;lat;lon;timestamp;pressure;altitude;pressure_sealevel;temperature;humidity
9460;BME280;4768;42.664;23.240;2023-02-28T00:00:13;-9564.94;;;5.44;100.00
9460;BME280;4768;42.664;23.240;2023-02-28T00:02:42;-9564.94;;;5.44;100.00
9460;BME280;4768;42.664;23.240;2023-02-28T00:05:11;-9564.22;;;5.41;100.00
9460;BME280;4768;42.664;23.240;2023-02-28T00:07:38;-9564.22;;;5.41;100.00
9460;BME280;4768;42.664;23.240;2023-02-28T00:10:08;-9563.94;;;5.40;100.00
9460;BME280;4768;42.664;23.240;2023-02-28T00:12:36;-9564.66;;;5.43;100.00
9460;BME280;4768;42.664;23.240;2023-02-28T00:15:06;-9564.53;;;5.42;100.00
9460;BME280;4768;42.664;23.240;2023-02-28T00:17:33;-9564.66;;;5.43;100.00
9460;BME280;4768;42.664;23.240;2023-02-28T00:20:00;-9564.94;;;5.44;100.00
9460;BME280;4768;42.664;23.240;2023-02-28T00:22:37;-9564.78;;;5.43;100.00
9460;BME280;4768;42.664;23.240;2023-02-28T00:25:07;-9564.94;;;5.44;100.00
9460;BME280;4768;42.664;23.240;2023-02-28T00:27:34;-9564.78;;;5.43;100.00
9460;BME280;4768;42.664;23.240;2023-02-28T00:30:01;-9564.38;;;5.42;100.00
9460;BME280;4768;42.664;23.240;2023-02-28T00:32:29;-9565.09;;;5.44;100.00
9460;BME280;4768;42.664;23.240;2023-02-28T00:34:56;-9567.50;;;5.53;100.00
9460;BME280;4768;42.664;23.240;2023-02-28T00:37:23;-9566.50;;;5.49;100.00
9460;BME280;4768;42.664;23.240;2023-02-28T00:39:49;-9565.66;;;5.46;100.00
9460;BME280;4768;42.664;23.240;2023-02-28T00:42:18;-9565.66;;;5.46;100.00
9460;BME280;4768;42.664;23.240;2023-02-28T00:44:44;-9564.94;;;5.44;100.00
9460;BME280;4768;42.664;23.240;2023-02-28T00:47:11;-9565.22;;;5.45;100.00
9460;BME280;4768;42.664;23.240;2023-02-28T00:49:38;-9563.38;;;5.38;100.00
9460;BME280;4768;42.664;23.240;2023-02-28T00:52:04;-9561.81;;;5.33;100.00
9460;BME280;4768;42.664;23.240;2023-02-28T00:54:31;-9561.41;;;5.31;100.00
9460;BME280;4768;42.664;23.240;2023-02-28T00:56:58;-9559.56;;;5.25;100.00
9460;BME280;4768;42.664;23.240;2023-02-28T00:59:26;-9558.84;;;5.23;100.00
9460;BME280;4768;42.664;23.240;2023-02-28T01:01:53;-9556.19;;;5.13;100.00
9460;BME280;4768;42.664;23.240;2023-02-28T01:04:20;-9556.47;;;5.14;100.00
9460;BME280;4768;42.664;23.240;2023-02-28T01:06:47;-9555.75;;;5.12;100.00
9460;BME280;4768;42.664;23.240;2023-02-28T01:09:13;-9554.91;;;5.09;100.00
9460;BME280;4768;42.664;23.240;2023-02-28T01:11:41;-9554.47;;;5.07;100.00
9460;BME280;4768;42.664;23.240;2023-02-28T01:14:11;-9554.06;;;5.06;100.00
9460;BME280;4768;42.664;23.240;2023-02-28T01:16:40;-9552.91;;;5.02;100.00
9460;BME280;4768;42.664;23.240;2023-02-28T01:19:07;-9551.22;;;4.96;100.00
9460;BME280;4768;42.664;23.240;2023-02-28T01:21:34;-9550.09;;;4.92;100.00
9460;BME280;4768;42.664;23.240;2023-02-28T01:24:02;-9549.38;;;4.89;100.00
9460;BME280;4768;42.664;23.240;2023-02-28T01:26:29;-9548.41;;;4.86;100.00
9460;BME280;4768;42.664;23.240;2023-02-28T01:28:56;-9547.84;;;4.84;100.00
9460;BME280;4768;42.664;23.240;2023-02-28T01:31:23;-9547.13;;;4.81;100.00
9460;BME280;4768;42.664;23.240;2023-02-28T01:33:51;-9544.31;;;4.72;100.00
9460;BME280;4768;42.664;23.240;2023-02-28T01:36:20;-9543.03;;;4.67;100.00
9460;BME280;4768;42.664;23.240;2023-02-28T01:38:48;-9542.03;;;4.64;100.00
9460;BME280;4768;42.664;23.240;2023-02-28T01:41:17;-9540.47;;;4.58;100.00
9460;BME280;4768;42.664;23.240;2023-02-28T01:43:59;-9540.75;;;4.59;100.00
9460;BME280;4768;42.664;23.240;2023-02-28T01:46:29;-9540.75;;;4.59;100.00
9460;BME280;4768;42.664;23.240;2023-02-28T01:49:02;-9538.50;;;4.51;100.00
9460;BME280;4768;42.664;23.240;2023-02-28T01:51:34;-9539.50;;;4.55;100.00
9460;BME280;4768;42.664;23.240;2023-02-28T01:54:06;-9533.97;;;4.35;100.00
9460;BME280;4768;42.664;23.240;2023-02-28T01:56:41;-9533.00;;;4.32;100.00
9460;BME280;4768;42.664;23.240;2023-02-28T01:59:12;-9533.97;;;4.35;100.00
9460;BME280;4768;42.664;23.240;2023-02-28T02:01:40;-9531.31;;;4.26;100.00
9460;BME280;4768;42.664;23.240;2023-02-28T02:04:09;-9532.72;;;4.31;100.00
9460;BME280;4768;42.664;23.240;2023-02-28T02:06:39;-9531.16;;;4.26;100.00
9460;BME280;4768;42.664;23.240;2023-02-28T02:09:06;-9532.28;;;4.30;100.00
9460;BME280;4768;42.664;23.240;2023-02-28T02:11:34;-9534.41;;;4.37;100.00
9460;BME280;4768;42.664;23.240;2023-02-28T02:14:16;-9534.97;;;4.39;100.00
9460;BME280;4768;42.664;23.240;2023-02-28T02:17:02;-9535.81;;;4.42;100.00
9460;BME280;4768;42.664;23.240;2023-02-28T02:20:05;-9537.38;;;4.47;100.00
9460;BME280;4768;42.664;23.240;2023-02-28T02:26:04;-9539.91;;;4.56;100.00
9460;BME280;4768;42.664;23.240;2023-02-28T02:29:03;-9538.38;;;4.51;100.00
9460;BME280;4768;42.664;23.240;2023-02-28T02:32:14;-9538.50;;;4.51;100.00
9460;BME280;4768;42.664;23.240;2023-02-28T02:34:55;-9539.91;;;4.56;100.00
9460;BME280;4768;42.664;23.240;2023-02-28T02:37:30;-9541.19;;;4.61;100.00
9460;BME280;4768;42.664;23.240;2023-02-28T02:40:05;-9540.47;;;4.58;100.00
9460;BME280;4768;42.664;23.240;2023-02-28T02:42:42;-9542.03;;;4.64;100.00
9460;BME280;4768;42.664;23.240;2023-02-28T02:45:14;-9541.75;;;4.63;100.00
9460;BME280;4768;42.664;23.240;2023-02-28T02:47:44;-9543.31;;;4.68;100.00
9460;BME280;4768;42.664;23.240;2023-02-28T02:50:19;-9541.47;;;4.62;100.00
9460;BME280;4768;42.664;23.240;2023-02-28T02:52:52;-9541.06;;;4.60;100.00
9460;BME280;4768;42.664;23.240;2023-02-28T02:55:20;-9541.91;;;4.63;100.00
9460;BME280;4768;42.664;23.240;2023-02-28T02:57:51;-9541.75;;;4.63;100.00
9460;BME280;4768;42.664;23.240;2023-02-28T03:00:22;-9541.34;;;4.61;100.00
9460;BME280;4768;42.664;23.240;2023-02-28T03:02:52;-9542.03;;;4.64;100.00
9460;BME280;4768;42.664;23.240;2023-02-28T03:05:26;-9538.38;;;4.51;100.00
9460;BME280;4768;42.664;23.240;2023-02-28T03:07:52;-9540.47;;;4.58;100.00
9460;BME280;4768;42.664;23.240;2023-02-28T03:10:28;-9537.09;;;4.46;100.00
9460;BME280;4768;42.664;23.240;2023-02-28T03:13:03;-9538.78;;;4.52;100.00
9460;BME280;4768;42.664;23.240;2023-02-28T03:15:43;-9538.22;;;4.50;100.00
9460;BME280;4768;42.664;23.240;2023-02-28T03:18:24;-9536.66;;;4.45;100.00
9460;BME280;4768;42.664;23.240;2023-02-28T03:20:57;-9538.22;;;4.50;100.00
9460;BME280;4768;42.664;23.240;2023-02-28T03:23:32;-9536.25;;;4.43;100.00
9460;BME280;4768;42.664;23.240;2023-02-28T03:26:07;-9536.09;;;4.43;100.00
9460;BME280;4768;42.664;23.240;2023-02-28T03:28:42;-9537.53;;;4.48;100.00
9460;BME280;4768;42.664;23.240;2023-02-28T03:31:17;-9536.81;;;4.45;100.00
9460;BME280;4768;42.664;23.240;2023-02-28T03:33:50;-9536.81;;;4.45;100.00
9460;BME280;4768;42.664;23.240;2023-02-28T03:38:49;-9538.22;;;4.50;100.00
9460;BME280;4768;42.664;23.240;2023-02-28T03:41:21;-9536.81;;;4.45;100.00
9460;BME280;4768;42.664;23.240;2023-02-28T03:43:52;-9535.81;;;4.42;100.00
9460;BME280;4768;42.664;23.240;2023-02-28T03:46:23;-9534.69;;;4.38;100.00
9460;BME280;4768;42.664;23.240;2023-02-28T03:48:54;-9534.97;;;4.39;100.00
9460;BME280;4768;42.664;23.240;2023-02-28T03:51:24;-9536.09;;;4.43;100.00
9460;BME280;4768;42.664;23.240;2023-02-28T03:53:54;-9537.78;;;4.49;100.00
9460;BME280;4768;42.664;23.240;2023-02-28T03:56:27;-9537.22;;;4.47;100.00
9460;BME280;4768;42.664;23.240;2023-02-28T03:59:01;-9536.53;;;4.44;100.00
9460;BME280;4768;42.664;23.240;2023-02-28T04:01:33;-9535.25;;;4.40;100.00
9460;BME280;4768;42.664;23.240;2023-02-28T04:04:02;-9536.66;;;4.45;100.00
9460;BME280;4768;42.664;23.240;2023-02-28T04:06:31;-9537.22;;;4.47;100.00
9460;BME280;4768;42.664;23.240;2023-02-28T04:09:00;-9538.50;;;4.51;100.00
9460;BME280;4768;42.664;23.240;2023-02-28T04:11:31;-9538.38;;;4.51;100.00
9460;BME280;4768;42.664;23.240;2023-02-28T04:14:00;-9539.63;;;4.55;100.00
9460;BME280;4768;42.664;23.240;2023-02-28T04:16:27;-9541.63;;;4.62;100.00
9460;BME280;4768;42.664;23.240;2023-02-28T04:18:54;-9540.75;;;4.59;100.00
9460;BME280;4768;42.664;23.240;2023-02-28T04:21:27;-9540.63;;;4.59;100.00
9460;BME280;4768;42.664;23.240;2023-02-28T04:23:54;-9541.47;;;4.62;100.00
9460;BME280;4768;42.664;23.240;2023-02-28T04:28:47;-9538.09;;;4.50;100.00
9460;BME280;4768;42.664;23.240;2023-02-28T04:31:14;-9538.66;;;4.52;100.00
9460;BME280;4768;42.664;23.240;2023-02-28T04:33:41;-9536.94;;;4.46;100.00
9460;BME280;4768;42.664;23.240;2023-02-28T04:36:08;-9535.97;;;4.42;100.00
9460;BME280;4768;42.664;23.240;2023-02-28T04:38:36;-9536.81;;;4.45;100.00
9460;BME280;4768;42.664;23.240;2023-02-28T04:41:04;-9536.81;;;4.45;100.00
9460;BME280;4768;42.664;23.240;2023-02-28T04:43:31;-9536.25;;;4.43;100.00
9460;BME280;4768;42.664;23.240;2023-02-28T04:46:02;-9535.81;;;4.42;100.00
9460;BME280;4768;42.664;23.240;2023-02-28T04:48:31;-9533.56;;;4.34;100.00
9460;BME280;4768;42.664;23.240;2023-02-28T04:51:00;-9535.69;;;4.41;100.00
9460;BME280;4768;42.664;23.240;2023-02-28T04:53:27;-9535.69;;;4.41;100.00
9460;BME280;4768;42.664;23.240;2023-02-28T04:55:54;-9533.13;;;4.32;100.00
9460;BME280;4768;42.664;23.240;2023-02-28T04:58:21;-9533.56;;;4.34;100.00
9460;BME280;4768;42.664;23.240;2023-02-28T05:00:48;-9532.72;;;4.31;100.00
9460;BME280;4768;42.664;23.240;2023-02-28T05:03:16;-9532.84;;;4.31;100.00
9460;BME280;4768;42.664;23.240;2023-02-28T05:05:43;-9532.72;;;4.31;100.00
9460;BME280;4768;42.664;23.240;2023-02-28T05:08:10;-9532.44;;;4.30;100.00
9460;BME280;4768;42.664;23.240;2023-02-28T05:10:37;-9532.56;;;4.31;100.00
9460;BME280;4768;42.664;23.240;2023-02-28T05:13:03;-9533.69;;;4.34;100.00
9460;BME280;4768;42.664;23.240;2023-02-28T05:15:30;-9533.56;;;4.34;100.00
9460;BME280;4768;42.664;23.240;2023-02-28T05:17:57;-9533.84;;;4.35;100.00
9460;BME280;4768;42.664;23.240;2023-02-28T05:20:25;-9535.13;;;4.39;100.00
9460;BME280;4768;42.664;23.240;2023-02-28T05:22:52;-9535.25;;;4.40;100.00
9460;BME280;4768;42.664;23.240;2023-02-28T05:25:20;-9530.31;;;4.23;100.00
9460;BME280;4768;42.664;23.240;2023-02-28T05:27:48;-9533.41;;;4.33;100.00
9460;BME280;4768;42.664;23.240;2023-02-28T05:30:15;-9535.53;;;4.41;100.00
9460;BME280;4768;42.664;23.240;2023-02-28T05:32:42;-9533.28;;;4.33;100.00
9460;BME280;4768;42.664;23.240;2023-02-28T05:35:10;-9533.69;;;4.34;100.00
9460;BME280;4768;42.664;23.240;2023-02-28T05:37:38;-9534.84;;;4.38;100.00
9460;BME280;4768;42.664;23.240;2023-02-28T05:40:06;-9535.25;;;4.40;100.00
9460;BME280;4768;42.664;23.240;2023-02-28T05:42:35;-9535.81;;;4.42;100.00
9460;BME280;4768;42.664;23.240;2023-02-28T05:45:03;-9536.09;;;4.43;100.00
9460;BME280;4768;42.664;23.240;2023-02-28T05:47:30;-9535.13;;;4.39;100.00
9460;BME280;4768;42.664;23.240;2023-02-28T05:49:57;-9535.69;;;4.41;100.00
9460;BME280;4768;42.664;23.240;2023-02-28T05:52:23;-9536.66;;;4.45;100.00
9460;BME280;4768;42.664;23.240;2023-02-28T05:54:52;-9535.53;;;4.41;100.00
9460;BME280;4768;42.664;23.240;2023-02-28T05:57:18;-9535.53;;;4.41;100.00
9460;BME280;4768;42.664;23.240;2023-02-28T05:59:45;-9537.94;;;4.49;100.00
9460;BME280;4768;42.664;23.240;2023-02-28T06:02:13;-9535.69;;;4.41;100.00
9460;BME280;4768;42.664;23.240;2023-02-28T06:04:41;-9538.66;;;4.52;100.00
9460;BME280;4768;42.664;23.240;2023-02-28T06:07:08;-9537.22;;;4.47;100.00
9460;BME280;4768;42.664;23.240;2023-02-28T06:09:35;-9536.38;;;4.44;100.00
9460;BME280;4768;42.664;23.240;2023-02-28T06:12:05;-9536.25;;;4.43;100.00
9460;BME280;4768;42.664;23.240;2023-02-28T06:14:32;-9538.66;;;4.52;100.00
9460;BME280;4768;42.664;23.240;2023-02-28T06:17:00;-9537.66;;;4.48;100.00
9460;BME280;4768;42.664;23.240;2023-02-28T06:19:27;-9537.09;;;4.46;100.00
9460;BME280;4768;42.664;23.240;2023-02-28T06:21:55;-9537.22;;;4.47;100.00
9460;BME280;4768;42.664;23.240;2023-02-28T06:24:24;-9539.06;;;4.53;100.00
9460;BME280;4768;42.664;23.240;2023-02-28T06:26:53;-9541.19;;;4.61;100.00
9460;BME280;4768;42.664;23.240;2023-02-28T06:29:21;-9542.19;;;4.64;100.00
9460;BME280;4768;42.664;23.240;2023-02-28T06:31:48;-9541.06;;;4.60;100.00
9460;BME280;4768;42.664;23.240;2023-02-28T06:34:15;-9540.91;;;4.60;100.00
9460;BME280;4768;42.664;23.240;2023-02-28T06:36:42;-9540.63;;;4.59;100.00
9460;BME280;4768;42.664;23.240;2023-02-28T06:39:09;-9541.91;;;4.63;100.00
9460;BME280;4768;42.664;23.240;2023-02-28T06:41:36;-9541.34;;;4.61;100.00
9460;BME280;4768;42.664;23.240;2023-02-28T06:44:04;-9544.00;;;4.71;100.00
9460;BME280;4768;42.664;23.240;2023-02-28T06:46:32;-9544.44;;;4.72;100.00
9460;BME280;4768;42.664;23.240;2023-02-28T06:48:59;-9545.16;;;4.75;100.00
9460;BME280;4768;42.664;23.240;2023-02-28T06:51:25;-9544.72;;;4.73;100.00
9460;BME280;4768;42.664;23.240;2023-02-28T06:53:52;-9544.88;;;4.74;100.00
9460;BME280;4768;42.664;23.240;2023-02-28T06:56:19;-9544.59;;;4.73;100.00
9460;BME280;4768;42.664;23.240;2023-02-28T06:58:46;-9544.88;;;4.74;100.00
9460;BME280;4768;42.664;23.240;2023-02-28T07:01:14;-9545.44;;;4.76;100.00
9460;BME280;4768;42.664;23.240;2023-02-28T07:03:42;-9548.69;;;4.87;100.00
9460;BME280;4768;42.664;23.240;2023-02-28T07:06:09;-9549.25;;;4.89;100.00
9460;BME280;4768;42.664;23.240;2023-02-28T07:08:35;-9547.28;;;4.82;100.00
9460;BME280;4768;42.664;23.240;2023-02-28T07:11:03;-9547.84;;;4.84;100.00
9460;BME280;4768;42.664;23.240;2023-02-28T07:13:30;-9546.97;;;4.81;100.00
9460;BME280;4768;42.664;23.240;2023-02-28T07:15:59;-9545.56;;;4.76;100.00
9460;BME280;4768;42.664;23.240;2023-02-28T07:18:26;-9549.38;;;4.89;100.00
9460;BME280;4768;42.664;23.240;2023-02-28T07:20:54;-9547.53;;;4.83;100.00
9460;BME280;4768;42.664;23.240;2023-02-28T07:23:21;-9545.72;;;4.77;100.00
9460;BME280;4768;42.664;23.240;2023-02-28T07:25:49;-9546.84;;;4.80;100.00
9460;BME280;4768;42.664;23.240;2023-02-28T07:28:16;-9547.41;;;4.82;100.00
9460;BME280;4768;42.664;23.240;2023-02-28T07:30:43;-9546.84;;;4.80;100.00
9460;BME280;4768;42.664;23.240;2023-02-28T07:33:09;-9546.69;;;4.80;100.00
9460;BME280;4768;42.664;23.240;2023-02-28T07:35:36;-9546.13;;;4.78;100.00
9460;BME280;4768;42.664;23.240;2023-02-28T07:38:05;-9548.81;;;4.87;100.00
9460;BME280;4768;42.664;23.240;2023-02-28T07:40:32;-9546.84;;;4.80;100.00
9460;BME280;4768;42.664;23.240;2023-02-28T07:43:00;-9547.13;;;4.81;100.00
9460;BME280;4768;42.664;23.240;2023-02-28T07:45:27;-9548.13;;;4.85;100.00
9460;BME280;4768;42.664;23.240;2023-02-28T07:47:55;-9546.69;;;4.80;100.00
9460;BME280;4768;42.664;23.240;2023-02-28T07:50:22;-9548.25;;;4.85;100.00
9460;BME280;4768;42.664;23.240;2023-02-28T07:52:49;-9548.41;;;4.86;100.00
9460;BME280;4768;42.664;23.240;2023-02-28T07:55:17;-9547.28;;;4.82;100.00
9460;BME280;4768;42.664;23.240;2023-02-28T07:57:44;-9548.81;;;4.87;100.00
9460;BME280;4768;42.664;23.240;2023-02-28T08:00:12;-9547.69;;;4.83;100.00
9460;BME280;4768;42.664;23.240;2023-02-28T08:02:39;-9548.13;;;4.85;100.00
9460;BME280;4768;42.664;23.240;2023-02-28T08:05:08;-9549.09;;;4.88;100.00
9460;BME280;4768;42.664;23.240;2023-02-28T08:07:35;-9551.66;;;4.97;100.00
9460;BME280;4768;42.664;23.240;2023-02-28T08:10:04;-9553.47;;;5.04;100.00
9460;BME280;4768;42.664;23.240;2023-02-28T08:12:34;-9553.22;;;5.03;100.00
9460;BME280;4768;42.664;23.240;2023-02-28T08:15:01;-9559.28;;;5.24;100.00
9460;BME280;4768;42.664;23.240;2023-02-28T08:17:28;-9560.00;;;5.27;100.00
9460;BME280;4768;42.664;23.240;2023-02-28T08:19:55;-9556.75;;;5.15;100.00
9460;BME280;4768;42.664;23.240;2023-02-28T08:22:22;-9562.69;;;5.36;100.00
9460;BME280;4768;42.664;23.240;2023-02-28T08:24:48;-9557.72;;;5.19;100.00
9460;BME280;4768;42.664;23.240;2023-02-28T08:27:15;-9560.00;;;5.27;100.00
9460;BME280;4768;42.664;23.240;2023-02-28T08:29:44;-9558.84;;;5.23;100.00
9460;BME280;4768;42.664;23.240;2023-02-28T08:32:10;-9559.84;;;5.26;100.00
9460;BME280;4768;42.664;23.240;2023-02-28T08:34:38;-9559.44;;;5.25;100.00
9460;BME280;4768;42.664;23.240;2023-02-28T08:37:05;-9559.56;;;5.25;100.00
9460;BME280;4768;42.664;23.240;2023-02-28T08:39:34;-9561.56;;;5.32;100.00
9460;BME280;4768;42.664;23.240;2023-02-28T08:42:01;-9563.25;;;5.38;100.00
9460;BME280;4768;42.664;23.240;2023-02-28T08:44:27;-9564.94;;;5.44;100.00
9460;BME280;4768;42.664;23.240;2023-02-28T08:46:55;-9566.63;;;5.50;100.00
9460;BME280;4768;42.664;23.240;2023-02-28T08:49:22;-9565.09;;;5.44;100.00
9460;BME280;4768;42.664;23.240;2023-02-28T08:51:49;-9566.78;;;5.50;100.00
9460;BME280;4768;42.664;23.240;2023-02-28T08:54:16;-9566.50;;;5.49;100.00
9460;BME280;4768;42.664;23.240;2023-02-28T08:56:45;-9569.59;;;5.60;100.00
9460;BME280;4768;42.664;23.240;2023-02-28T08:59:11;-9570.59;;;5.64;100.00
9460;BME280;4768;42.664;23.240;2023-02-28T09:01:38;-9570.59;;;5.64;100.00
9460;BME280;4768;42.664;23.240;2023-02-28T09:04:07;-9570.31;;;5.63;100.00
9460;BME280;4768;42.664;23.240;2023-02-28T09:06:36;-9570.59;;;5.64;100.00
9460;BME280;4768;42.664;23.240;2023-02-28T09:09:03;-9573.00;;;5.72;100.00
9460;BME280;4768;42.664;23.240;2023-02-28T09:11:31;-9571.03;;;5.65;100.00
9460;BME280;4768;42.664;23.240;2023-02-28T09:13:59;-9569.47;;;5.60;100.00
9460;BME280;4768;42.664;23.240;2023-02-28T09:16:26;-9571.16;;;5.66;100.00
9460;BME280;4768;42.664;23.240;2023-02-28T09:18:53;-9573.84;;;5.75;100.00
9460;BME280;4768;42.664;23.240;2023-02-28T09:21:21;-9573.56;;;5.74;100.00
9460;BME280;4768;42.664;23.240;2023-02-28T09:23:49;-9575.84;;;5.82;100.00
9460;BME280;4768;42.664;23.240;2023-02-28T09:26:18;-9575.97;;;5.82;100.00
9460;BME280;4768;42.664;23.240;2023-02-28T09:28:45;-9576.97;;;5.86;100.00
9460;BME280;4768;42.664;23.240;2023-02-28T09:31:13;-9579.38;;;5.94;100.00
9460;BME280;4768;42.664;23.240;2023-02-28T09:33:40;-9580.09;;;5.97;100.00
9460;BME280;4768;42.664;23.240;2023-02-28T09:36:07;-9583.19;;;6.08;100.00
9460;BME280;4768;42.664;23.240;2023-02-28T09:38:35;-9582.78;;;6.06;100.00
9460;BME280;4768;42.664;23.240;2023-02-28T09:41:08;-9588.28;;;6.25;100.00
9460;BME280;4768;42.664;23.240;2023-02-28T09:43:38;-9587.72;;;6.24;100.00
9460;BME280;4768;42.664;23.240;2023-02-28T09:46:14;-9588.44;;;6.26;100.00
9460;BME280;4768;42.664;23.240;2023-02-28T09:48:45;-9589.41;;;6.29;100.00
9460;BME280;4768;42.664;23.240;2023-02-28T09:51:28;-9588.56;;;6.26;100.00
9460;BME280;4768;42.664;23.240;2023-02-28T09:53:58;-9589.69;;;6.30;100.00
9460;BME280;4768;42.664;23.240;2023-02-28T09:56:27;-9592.09;;;6.39;100.00
9460;BME280;4768;42.664;23.240;2023-02-28T09:58:59;-9593.66;;;6.44;100.00
9460;BME280;4768;42.664;23.240;2023-02-28T10:01:31;-9591.97;;;6.38;100.00
9460;BME280;4768;42.664;23.240;2023-02-28T10:04:05;-9592.69;;;6.41;100.00
9460;BME280;4768;42.664;23.240;2023-02-28T10:06:39;-9593.53;;;6.44;100.00
9460;BME280;4768;42.664;23.240;2023-02-28T10:09:12;-9594.50;;;6.47;100.00
9460;BME280;4768;42.664;23.240;2023-02-28T10:11:40;-9596.50;;;6.54;100.00
9460;BME280;4768;42.664;23.240;2023-02-28T10:14:13;-9602.28;;;6.74;100.00
9460;BME280;4768;42.664;23.240;2023-02-28T10:16:43;-9601.72;;;6.72;100.00
9460;BME280;4768;42.664;23.240;2023-02-28T10:19:20;-9604.69;;;6.83;100.00
9460;BME280;4768;42.664;23.240;2023-02-28T10:21:54;-9605.69;;;6.86;100.00
9460;BME280;4768;42.664;23.240;2023-02-28T10:24:28;-9606.97;;;6.91;100.00
9460;BME280;4768;42.664;23.240;2023-02-28T10:26:59;-9609.81;;;7.01;100.00
9460;BME280;4768;42.664;23.240;2023-02-28T10:29:27;-9610.09;;;7.02;100.00
9460;BME280;4768;42.664;23.240;2023-02-28T10:31:55;-9615.19;;;7.20;100.00
9460;BME280;4768;42.664;23.240;2023-02-28T10:34:22;-9620.13;;;7.37;100.00
9460;BME280;4768;42.664;23.240;2023-02-28T10:36:51;-9615.03;;;7.19;100.00
9460;BME280;4768;42.664;23.240;2023-02-28T10:39:39;-9620.13;;;7.37;100.00
9460;BME280;4768;42.664;23.240;2023-02-28T10:42:24;-9621.00;;;7.40;100.00
9460;BME280;4768;42.664;23.240;2023-02-28T10:45:09;-9633.88;;;7.85;100.00
9460;BME280;4768;42.664;23.240;2023-02-28T10:47:49;-9643.22;;;8.18;100.00
9460;BME280;4768;42.664;23.240;2023-02-28T10:50:44;-9645.94;;;8.27;100.00
9460;BME280;4768;42.664;23.240;2023-02-28T10:53:22;-9652.00;;;8.48;100.00
9460;BME280;4768;42.664;23.240;2023-02-28T10:55:59;-9658.13;;;8.69;100.00
9460;BME280;4768;42.664;23.240;2023-02-28T10:58:28;-9659.09;;;8.73;100.00
9460;BME280;4768;42.664;23.240;2023-02-28T11:00:55;-9668.59;;;9.06;100.00
9460;BME280;4768;42.664;23.240;2023-02-28T11:03:25;-9674.41;;;9.26;100.00
9460;BME280;4768;42.664;23.240;2023-02-28T11:05:52;-9676.13;;;9.32;100.00
9460;BME280;4768;42.664;23.240;2023-02-28T11:08:18;-9675.25;;;9.29;100.00
9460;BME280;4768;42.664;23.240;2023-02-28T11:10:46;-9674.00;;;9.25;100.00
9460;BME280;4768;42.664;23.240;2023-02-28T11:13:20;-9684.34;;;9.61;100.00
9460;BME280;4768;42.664;23.240;2023-02-28T11:15:51;-9681.78;;;9.52;100.00
9460;BME280;4768;42.664;23.240;2023-02-28T11:18:22;-9685.91;;;9.66;100.00
9460;BME280;4768;42.664;23.240;2023-02-28T11:20:53;-9685.91;;;9.66;100.00
9460;BME280;4768;42.664;23.240;2023-02-28T11:23:21;-9684.19;;;9.61;100.00
9460;BME280;4768;42.664;23.240;2023-02-28T11:25:52;-9686.91;;;9.70;100.00
9460;BME280;4768;42.664;23.240;2023-02-28T11:28:27;-9685.34;;;9.64;100.00
9460;BME280;4768;42.664;23.240;2023-02-28T11:31:06;-9702.78;;;10.25;100.00
9460;BME280;4768;42.664;23.240;2023-02-28T11:33:42;-9698.53;;;10.11;100.00
9460;BME280;4768;42.664;23.240;2023-02-28T11:36:12;-9694.56;;;9.97;100.00
9460;BME280;4768;42.664;23.240;2023-02-28T11:38:40;-9701.22;;;10.20;100.00
9460;BME280;4768;42.664;23.240;2023-02-28T11:41:20;-9705.19;;;10.34;100.00
9460;BME280;4768;42.664;23.240;2023-02-28T11:44:16;-9696.97;;;10.05;100.00
9460;BME280;4768;42.664;23.240;2023-02-28T11:46:50;-9689.72;;;9.80;100.00
9460;BME280;4768;42.664;23.240;2023-02-28T11:49:30;-9697.81;;;10.08;100.00
9460;BME280;4768;42.664;23.240;2023-02-28T11:52:02;-9692.84;;;9.91;100.00
9460;BME280;4768;42.664;23.240;2023-02-28T11:54:55;-9697.25;;;10.06;100.00
9460;BME280;4768;42.664;23.240;2023-02-28T11:57:36;-9704.63;;;10.32;100.00
9460;BME280;4768;42.664;23.240;2023-02-28T12:00:28;-9698.41;;;10.10;100.00
9460;BME280;4768;42.664;23.240;2023-02-28T12:03:04;-9698.81;;;10.12;100.00
9460;BME280;4768;42.664;23.240;2023-02-28T12:05:43;-9697.13;;;10.06;100.00
9460;BME280;4768;42.664;23.240;2023-02-28T12:08:23;-9698.69;;;10.11;100.00
9460;BME280;4768;42.664;23.240;2023-02-28T12:11:00;-9701.94;;;10.22;100.00
9460;BME280;4768;42.664;23.240;2023-02-28T12:13:38;-9699.09;;;10.13;100.00
9460;BME280;4768;42.664;23.240;2023-02-28T12:16:29;-9690.31;;;9.82;100.00
9460;BME280;4768;42.664;23.240;2023-02-28T12:19:19;-9693.84;;;9.94;100.00
9460;BME280;4768;42.664;23.240;2023-02-28T12:22:18;-9690.16;;;9.81;100.00
9460;BME280;4768;42.664;23.240;2023-02-28T12:24:58;-9696.25;;;10.03;100.00
9460;BME280;4768;42.664;23.240;2023-02-28T12:27:32;-9704.50;;;10.31;100.00
9460;BME280;4768;42.664;23.240;2023-02-28T12:30:03;-9702.09;;;10.23;100.00
9460;BME280;4768;42.664;23.240;2023-02-28T12:32:36;-9697.81;;;10.08;100.00
9460;BME280;4768;42.664;23.240;2023-02-28T12:35:11;-9694.28;;;9.96;100.00
9460;BME280;4768;42.664;23.240;2023-02-28T12:37:41;-9695.13;;;9.99;100.00
9460;BME280;4768;42.664;23.240;2023-02-28T12:40:13;-9691.00;;;9.84;100.00
9460;BME280;4768;42.664;23.240;2023-02-28T12:42:44;-9694.69;;;9.97;100.00
9460;BME280;4768;42.664;23.240;2023-02-28T12:45:18;-9694.00;;;9.95;100.00
9460;BME280;4768;42.664;23.240;2023-02-28T12:47:50;-9695.97;;;10.02;100.00
9460;BME280;4768;42.664;23.240;2023-02-28T12:50:19;-9692.00;;;9.88;100.00
9460;BME280;4768;42.664;23.240;2023-02-28T12:52:52;-9691.28;;;9.85;100.00
9460;BME280;4768;42.664;23.240;2023-02-28T12:55:30;-9686.03;;;9.67;100.00
9460;BME280;4768;42.664;23.240;2023-02-28T12:58:08;-9682.66;;;9.55;100.00
9460;BME280;4768;42.664;23.240;2023-02-28T13:00:43;-9684.19;;;9.61;100.00
9460;BME280;4768;42.664;23.240;2023-02-28T13:03:29;-9684.06;;;9.60;100.00
9460;BME280;4768;42.664;23.240;2023-02-28T13:06:15;-9687.75;;;9.73;100.00
9460;BME280;4768;42.664;23.240;2023-02-28T13:09:13;-9682.50;;;9.55;100.00
9460;BME280;4768;42.664;23.240;2023-02-28T13:11:43;-9692.28;;;9.89;100.00
9460;BME280;4768;42.664;23.240;2023-02-28T13:14:28;-9688.75;;;9.76;100.00
9460;BME280;4768;42.664;23.240;2023-02-28T13:16:59;-9685.75;;;9.66;100.00
9460;BME280;4768;42.664;23.240;2023-02-28T13:19:31;-9687.31;;;9.71;100.00
9460;BME280;4768;42.664;23.240;2023-02-28T13:21:59;-9683.50;;;9.58;100.00
9460;BME280;4768;42.664;23.240;2023-02-28T13:24:42;-9680.22;;;9.47;100.00
9460;BME280;4768;42.664;23.240;2023-02-28T13:27:24;-9678.94;;;9.42;100.00
9460;BME280;4768;42.664;23.240;2023-02-28T13:29:51;-9684.19;;;9.61;100.00
9460;BME280;4768;42.664;23.240;2023-02-28T13:32:34;-9681.78;;;9.52;100.00
9460;BME280;4768;42.664;23.240;2023-02-28T13:38:15;-9682.78;;;9.56;100.00
9460;BME280;4768;42.664;23.240;2023-02-28T13:40:43;-9688.19;;;9.74;100.00